sensor_id;sensor_type;location;lat;lon;timestamp;temperature;humidity
6666;DHT22;3369;49.906;8.598;2023-02-26T00:00:38;-0.90;99.90
6666;DHT22;3369;49.906;8.598;2023-02-26T00:03:09;-0.90;99.90
6666;DHT22;3369;49.906;8.598;2023-02-26T00:05:37;-0.90;99.90
6666;DHT22;3369;49.906;8.598;2023-02-26T00:08:03;-0.90;99.90
6666;DHT22;3369;49.906;8.598;2023-02-26T00:10:30;-1.00;99.90
6666;DHT22;3369;49.906;8.598;2023-02-26T00:12:56;-1.00;99.90
6666;DHT22;3369;49.906;8.598;2023-02-26T00:15:23;-1.00;99.90
6666;DHT22;3369;49.906;8.598;2023-02-26T00:18:07;-1.00;99.90
6666;DHT22;3369;49.906;8.598;2023-02-26T00:20:48;-1.00;99.90
6666;DHT22;3369;49.906;8.598;2023-02-26T00:26:46;-1.20;99.90
6666;DHT22;3369;49.906;8.598;2023-02-26T00:29:16;-1.20;99.90
6666;DHT22;3369;49.906;8.598;2023-02-26T00:31:45;-1.20;99.90
6666;DHT22;3369;49.906;8.598;2023-02-26T00:34:15;-1.20;99.90
6666;DHT22;3369;49.906;8.598;2023-02-26T00:40:37;-1.20;99.90
6666;DHT22;3369;49.906;8.598;2023-02-26T00:43:07;-1.20;99.90
6666;DHT22;3369;49.906;8.598;2023-02-26T00:45:34;-1.20;99.90
6666;DHT22;3369;49.906;8.598;2023-02-26T00:48:23;-1.10;99.90
6666;DHT22;3369;49.906;8.598;2023-02-26T00:50:59;-1.10;99.90
6666;DHT22;3369;49.906;8.598;2023-02-26T00:57:17;-1.10;99.90
6666;DHT22;3369;49.906;8.598;2023-02-26T00:59:43;-1.10;99.90
6666;DHT22;3369;49.906;8.598;2023-02-26T01:05:25;-1.10;99.90
6666;DHT22;3369;49.906;8.598;2023-02-26T01:28:57;-1.10;99.90
6666;DHT22;3369;49.906;8.598;2023-02-26T01:40:51;-1.00;99.90
6666;DHT22;3369;49.906;8.598;2023-02-26T01:49:19;-1.00;99.90
6666;DHT22;3369;49.906;8.598;2023-02-26T01:54:42;-1.00;99.90
6666;DHT22;3369;49.906;8.598;2023-02-26T01:57:19;-0.90;99.90
6666;DHT22;3369;49.906;8.598;2023-02-26T02:03:05;-0.90;99.90
6666;DHT22;3369;49.906;8.598;2023-02-26T02:05:35;-0.90;99.90
6666;DHT22;3369;49.906;8.598;2023-02-26T02:08:04;-0.90;99.90
6666;DHT22;3369;49.906;8.598;2023-02-26T02:10:47;-1.00;99.90
6666;DHT22;3369;49.906;8.598;2023-02-26T02:13:37;-1.00;99.90
6666;DHT22;3369;49.906;8.598;2023-02-26T02:22:10;-1.10;99.90
6666;DHT22;3369;49.906;8.598;2023-02-26T02:32:00;-1.40;99.90
6666;DHT22;3369;49.906;8.598;2023-02-26T02:37:45;-1.40;99.90
6666;DHT22;3369;49.906;8.598;2023-02-26T02:43:32;-1.50;99.90
6666;DHT22;3369;49.906;8.598;2023-02-26T02:46:34;-1.50;99.90
6666;DHT22;3369;49.906;8.598;2023-02-26T02:49:12;-1.50;99.90
6666;DHT22;3369;49.906;8.598;2023-02-26T02:55:04;-1.50;99.90
6666;DHT22;3369;49.906;8.598;2023-02-26T02:58:05;-1.50;99.90
6666;DHT22;3369;49.906;8.598;2023-02-26T03:00:37;-1.50;99.90
6666;DHT22;3369;49.906;8.598;2023-02-26T03:08:59;-1.40;99.90
6666;DHT22;3369;49.906;8.598;2023-02-26T03:11:28;-1.30;99.90
6666;DHT22;3369;49.906;8.598;2023-02-26T03:17:58;-1.10;99.90
6666;DHT22;3369;49.906;8.598;2023-02-26T03:20:55;-1.00;99.90
6666;DHT22;3369;49.906;8.598;2023-02-26T03:23:47;-1.00;99.90
6666;DHT22;3369;49.906;8.598;2023-02-26T03:26:30;-0.90;99.90
6666;DHT22;3369;49.906;8.598;2023-02-26T03:32:36;-0.90;99.90
6666;DHT22;3369;49.906;8.598;2023-02-26T03:35:29;-0.90;99.90
6666;DHT22;3369;49.906;8.598;2023-02-26T03:38:02;-0.90;99.90
6666;DHT22;3369;49.906;8.598;2023-02-26T03:43:35;-0.80;99.90
6666;DHT22;3369;49.906;8.598;2023-02-26T03:46:08;-0.80;99.90
6666;DHT22;3369;49.906;8.598;2023-02-26T03:48:38;-0.80;99.90
6666;DHT22;3369;49.906;8.598;2023-02-26T03:51:18;-0.80;99.90
6666;DHT22;3369;49.906;8.598;2023-02-26T03:53:54;-0.80;99.90
6666;DHT22;3369;49.906;8.598;2023-02-26T03:59:24;-0.80;99.90
6666;DHT22;3369;49.906;8.598;2023-02-26T04:02:00;-0.80;99.90
6666;DHT22;3369;49.906;8.598;2023-02-26T04:04:52;-0.90;99.90
6666;DHT22;3369;49.906;8.598;2023-02-26T04:07:36;-0.90;99.90
6666;DHT22;3369;49.906;8.598;2023-02-26T04:10:20;-1.00;99.90
6666;DHT22;3369;49.906;8.598;2023-02-26T04:12:51;-1.10;99.90
6666;DHT22;3369;49.906;8.598;2023-02-26T04:16:03;-1.10;99.90
6666;DHT22;3369;49.906;8.598;2023-02-26T04:18:06;-1.20;99.90
6666;DHT22;3369;49.906;8.598;2023-02-26T04:20:35;-1.30;99.90
6666;DHT22;3369;49.906;8.598;2023-02-26T04:23:22;-1.30;99.90
6666;DHT22;3369;49.906;8.598;2023-02-26T04:25:51;-1.40;99.90
6666;DHT22;3369;49.906;8.598;2023-02-26T04:28:17;-1.50;99.90
6666;DHT22;3369;49.906;8.598;2023-02-26T04:30:43;-1.60;99.90
6666;DHT22;3369;49.906;8.598;2023-02-26T04:33:12;-1.70;99.90
6666;DHT22;3369;49.906;8.598;2023-02-26T04:35:47;-1.70;99.90
6666;DHT22;3369;49.906;8.598;2023-02-26T04:38:14;-1.70;99.90
6666;DHT22;3369;49.906;8.598;2023-02-26T04:40:50;-1.70;99.90
6666;DHT22;3369;49.906;8.598;2023-02-26T04:43:16;-1.70;99.90
6666;DHT22;3369;49.906;8.598;2023-02-26T04:46:05;-1.80;99.90
6666;DHT22;3369;49.906;8.598;2023-02-26T04:48:31;-1.80;99.90
6666;DHT22;3369;49.906;8.598;2023-02-26T04:50:57;-1.80;99.90
6666;DHT22;3369;49.906;8.598;2023-02-26T04:53:23;-1.80;99.90
6666;DHT22;3369;49.906;8.598;2023-02-26T04:55:51;-1.80;99.90
6666;DHT22;3369;49.906;8.598;2023-02-26T05:01:37;-1.80;99.90
6666;DHT22;3369;49.906;8.598;2023-02-26T05:04:03;-1.90;99.90
6666;DHT22;3369;49.906;8.598;2023-02-26T05:06:29;-1.80;99.90
6666;DHT22;3369;49.906;8.598;2023-02-26T05:09:01;-1.80;99.90
6666;DHT22;3369;49.906;8.598;2023-02-26T05:11:30;-1.80;99.90
6666;DHT22;3369;49.906;8.598;2023-02-26T05:13:58;-1.80;99.90
6666;DHT22;3369;49.906;8.598;2023-02-26T05:16:24;-1.70;99.90
6666;DHT22;3369;49.906;8.598;2023-02-26T05:18:50;-1.70;99.90
6666;DHT22;3369;49.906;8.598;2023-02-26T05:21:24;-1.70;99.90
6666;DHT22;3369;49.906;8.598;2023-02-26T05:23:53;-1.70;99.90
6666;DHT22;3369;49.906;8.598;2023-02-26T05:26:21;-1.60;99.90
6666;DHT22;3369;49.906;8.598;2023-02-26T05:28:51;-1.50;99.90
6666;DHT22;3369;49.906;8.598;2023-02-26T05:31:22;-1.50;99.90
6666;DHT22;3369;49.906;8.598;2023-02-26T05:34:27;-1.60;99.90
6666;DHT22;3369;49.906;8.598;2023-02-26T05:36:53;-1.60;99.90
6666;DHT22;3369;49.906;8.598;2023-02-26T05:39:24;-1.70;99.90
6666;DHT22;3369;49.906;8.598;2023-02-26T05:41:53;-1.70;99.90
6666;DHT22;3369;49.906;8.598;2023-02-26T05:44:20;-1.80;99.90
6666;DHT22;3369;49.906;8.598;2023-02-26T05:46:46;-1.80;99.90
6666;DHT22;3369;49.906;8.598;2023-02-26T05:49:12;-1.80;99.90
6666;DHT22;3369;49.906;8.598;2023-02-26T05:51:41;-1.80;99.90
6666;DHT22;3369;49.906;8.598;2023-02-26T05:54:08;-1.80;99.90
6666;DHT22;3369;49.906;8.598;2023-02-26T05:56:34;-1.80;99.90
6666;DHT22;3369;49.906;8.598;2023-02-26T05:59:00;-1.80;99.90
6666;DHT22;3369;49.906;8.598;2023-02-26T06:01:26;-1.80;99.90
6666;DHT22;3369;49.906;8.598;2023-02-26T06:03:52;-1.80;99.90
6666;DHT22;3369;49.906;8.598;2023-02-26T06:06:17;-1.80;99.90
6666;DHT22;3369;49.906;8.598;2023-02-26T06:08:50;-1.80;99.90
6666;DHT22;3369;49.906;8.598;2023-02-26T06:11:16;-1.80;99.90
6666;DHT22;3369;49.906;8.598;2023-02-26T06:13:41;-1.80;99.90
6666;DHT22;3369;49.906;8.598;2023-02-26T06:16:07;-1.80;99.90
6666;DHT22;3369;49.906;8.598;2023-02-26T06:18:33;-1.80;99.90
6666;DHT22;3369;49.906;8.598;2023-02-26T06:21:00;-1.90;99.90
6666;DHT22;3369;49.906;8.598;2023-02-26T06:23:26;-1.80;99.90
6666;DHT22;3369;49.906;8.598;2023-02-26T06:25:52;-1.90;99.90
6666;DHT22;3369;49.906;8.598;2023-02-26T06:28:18;-1.90;99.90
6666;DHT22;3369;49.906;8.598;2023-02-26T06:30:45;-1.90;99.90
6666;DHT22;3369;49.906;8.598;2023-02-26T06:33:37;-1.90;99.90
6666;DHT22;3369;49.906;8.598;2023-02-26T06:36:06;-1.90;99.90
6666;DHT22;3369;49.906;8.598;2023-02-26T06:38:35;-1.90;99.90
6666;DHT22;3369;49.906;8.598;2023-02-26T06:41:01;-1.90;99.90
6666;DHT22;3369;49.906;8.598;2023-02-26T06:43:26;-1.90;99.90
6666;DHT22;3369;49.906;8.598;2023-02-26T06:45:58;-1.90;99.90
6666;DHT22;3369;49.906;8.598;2023-02-26T06:48:27;-1.90;99.90
6666;DHT22;3369;49.906;8.598;2023-02-26T07:12:30;-1.70;99.90
6666;DHT22;3369;49.906;8.598;2023-02-26T07:14:56;-1.60;99.90
6666;DHT22;3369;49.906;8.598;2023-02-26T07:17:21;-1.50;99.90
6666;DHT22;3369;49.906;8.598;2023-02-26T07:19:49;-1.40;99.90
6666;DHT22;3369;49.906;8.598;2023-02-26T07:22:18;-1.30;99.90
6666;DHT22;3369;49.906;8.598;2023-02-26T07:24:47;-1.20;99.90
6666;DHT22;3369;49.906;8.598;2023-02-26T07:27:14;-1.10;99.90
6666;DHT22;3369;49.906;8.598;2023-02-26T07:29:49;-1.10;99.90
6666;DHT22;3369;49.906;8.598;2023-02-26T07:35:29;-1.00;99.90
6666;DHT22;3369;49.906;8.598;2023-02-26T07:37:55;-0.90;99.90
6666;DHT22;3369;49.906;8.598;2023-02-26T07:40:20;-0.90;99.90
6666;DHT22;3369;49.906;8.598;2023-02-26T07:42:46;-0.80;99.90
6666;DHT22;3369;49.906;8.598;2023-02-26T07:45:11;-0.80;99.90
6666;DHT22;3369;49.906;8.598;2023-02-26T07:47:37;-0.70;99.90
6666;DHT22;3369;49.906;8.598;2023-02-26T07:50:04;-0.70;99.90
6666;DHT22;3369;49.906;8.598;2023-02-26T07:52:29;-0.60;99.90
6666;DHT22;3369;49.906;8.598;2023-02-26T07:54:55;-0.60;99.90
6666;DHT22;3369;49.906;8.598;2023-02-26T07:57:21;-0.50;99.90
6666;DHT22;3369;49.906;8.598;2023-02-26T07:59:46;-0.40;99.90
6666;DHT22;3369;49.906;8.598;2023-02-26T08:02:12;-0.40;99.90
6666;DHT22;3369;49.906;8.598;2023-02-26T08:04:38;-0.30;99.90
6666;DHT22;3369;49.906;8.598;2023-02-26T08:07:04;-0.20;99.90
6666;DHT22;3369;49.906;8.598;2023-02-26T08:09:30;-0.20;99.90
6666;DHT22;3369;49.906;8.598;2023-02-26T08:11:56;-0.20;99.90
6666;DHT22;3369;49.906;8.598;2023-02-26T08:14:22;-0.10;99.90
6666;DHT22;3369;49.906;8.598;2023-02-26T08:16:48;-0.20;99.90
6666;DHT22;3369;49.906;8.598;2023-02-26T08:19:14;-0.10;99.90
6666;DHT22;3369;49.906;8.598;2023-02-26T08:21:40;-0.10;99.90
6666;DHT22;3369;49.906;8.598;2023-02-26T08:24:06;-0.10;99.90
6666;DHT22;3369;49.906;8.598;2023-02-26T08:26:35;0.00;99.90
6666;DHT22;3369;49.906;8.598;2023-02-26T08:29:01;0.00;99.90
6666;DHT22;3369;49.906;8.598;2023-02-26T08:31:27;0.00;99.90
6666;DHT22;3369;49.906;8.598;2023-02-26T08:33:53;0.10;99.90
6666;DHT22;3369;49.906;8.598;2023-02-26T08:36:19;0.10;99.90
6666;DHT22;3369;49.906;8.598;2023-02-26T08:38:46;0.10;99.90
6666;DHT22;3369;49.906;8.598;2023-02-26T08:41:12;0.20;99.90
6666;DHT22;3369;49.906;8.598;2023-02-26T08:43:38;0.30;99.90
6666;DHT22;3369;49.906;8.598;2023-02-26T08:46:04;0.40;99.90
6666;DHT22;3369;49.906;8.598;2023-02-26T08:48:30;0.40;99.90
6666;DHT22;3369;49.906;8.598;2023-02-26T08:50:56;0.40;99.90
6666;DHT22;3369;49.906;8.598;2023-02-26T08:53:22;0.50;99.90
6666;DHT22;3369;49.906;8.598;2023-02-26T08:55:49;0.50;99.90
6666;DHT22;3369;49.906;8.598;2023-02-26T08:58:16;0.50;99.90
6666;DHT22;3369;49.906;8.598;2023-02-26T09:00:42;0.40;99.90
6666;DHT22;3369;49.906;8.598;2023-02-26T09:03:07;0.40;99.90
6666;DHT22;3369;49.906;8.598;2023-02-26T09:05:33;0.40;99.90
6666;DHT22;3369;49.906;8.598;2023-02-26T09:07:59;0.50;99.90
6666;DHT22;3369;49.906;8.598;2023-02-26T09:10:25;0.50;99.90
6666;DHT22;3369;49.906;8.598;2023-02-26T09:12:50;0.60;99.90
6666;DHT22;3369;49.906;8.598;2023-02-26T09:15:16;0.60;99.90
6666;DHT22;3369;49.906;8.598;2023-02-26T09:17:42;0.70;99.90
6666;DHT22;3369;49.906;8.598;2023-02-26T09:20:09;0.70;99.90
6666;DHT22;3369;49.906;8.598;2023-02-26T09:22:35;0.70;99.90
6666;DHT22;3369;49.906;8.598;2023-02-26T09:25:02;0.60;99.90
6666;DHT22;3369;49.906;8.598;2023-02-26T09:27:28;0.70;99.90
6666;DHT22;3369;49.906;8.598;2023-02-26T09:29:54;0.70;99.90
6666;DHT22;3369;49.906;8.598;2023-02-26T09:32:20;0.80;99.90
6666;DHT22;3369;49.906;8.598;2023-02-26T09:34:45;0.80;99.90
6666;DHT22;3369;49.906;8.598;2023-02-26T09:37:12;0.90;99.90
6666;DHT22;3369;49.906;8.598;2023-02-26T09:39:38;0.90;99.90
6666;DHT22;3369;49.906;8.598;2023-02-26T09:44:51;1.00;99.90
6666;DHT22;3369;49.906;8.598;2023-02-26T09:47:24;1.00;99.90
6666;DHT22;3369;49.906;8.598;2023-02-26T09:50:12;1.10;99.90
6666;DHT22;3369;49.906;8.598;2023-02-26T09:53:09;1.10;99.90
6666;DHT22;3369;49.906;8.598;2023-02-26T09:55:44;1.20;99.90
6666;DHT22;3369;49.906;8.598;2023-02-26T09:58:34;1.20;99.90
6666;DHT22;3369;49.906;8.598;2023-02-26T10:09:52;1.40;98.80
6666;DHT22;3369;49.906;8.598;2023-02-26T10:12:24;1.40;98.50
6666;DHT22;3369;49.906;8.598;2023-02-26T10:14:57;1.50;98.70
6666;DHT22;3369;49.906;8.598;2023-02-26T10:20:54;1.80;98.20
6666;DHT22;3369;49.906;8.598;2023-02-26T10:26:13;2.00;99.30
6666;DHT22;3369;49.906;8.598;2023-02-26T10:29:49;2.10;97.90
6666;DHT22;3369;49.906;8.598;2023-02-26T10:34:46;2.10;97.20
6666;DHT22;3369;49.906;8.598;2023-02-26T10:51:21;2.30;97.20
6666;DHT22;3369;49.906;8.598;2023-02-26T10:54:03;2.30;97.60
6666;DHT22;3369;49.906;8.598;2023-02-26T10:56:31;2.40;97.70
6666;DHT22;3369;49.906;8.598;2023-02-26T10:58:57;2.50;96.80
6666;DHT22;3369;49.906;8.598;2023-02-26T11:01:25;2.50;97.10
6666;DHT22;3369;49.906;8.598;2023-02-26T11:04:14;2.60;97.30
6666;DHT22;3369;49.906;8.598;2023-02-26T11:06:52;2.60;96.80
6666;DHT22;3369;49.906;8.598;2023-02-26T11:09:36;2.60;95.60
6666;DHT22;3369;49.906;8.598;2023-02-26T11:12:15;2.70;96.20
6666;DHT22;3369;49.906;8.598;2023-02-26T11:14:43;2.70;94.50
6666;DHT22;3369;49.906;8.598;2023-02-26T11:17:23;2.70;94.40
6666;DHT22;3369;49.906;8.598;2023-02-26T11:19:58;2.70;94.70
6666;DHT22;3369;49.906;8.598;2023-02-26T11:22:28;2.80;95.20
6666;DHT22;3369;49.906;8.598;2023-02-26T11:24:57;2.90;95.40
6666;DHT22;3369;49.906;8.598;2023-02-26T11:27:34;3.00;95.30
6666;DHT22;3369;49.906;8.598;2023-02-26T11:30:06;3.10;95.40
6666;DHT22;3369;49.906;8.598;2023-02-26T11:32:35;3.40;95.80
6666;DHT22;3369;49.906;8.598;2023-02-26T11:35:02;3.60;96.60
6666;DHT22;3369;49.906;8.598;2023-02-26T11:37:35;3.80;94.90
6666;DHT22;3369;49.906;8.598;2023-02-26T11:42:46;3.80;95.30
6666;DHT22;3369;49.906;8.598;2023-02-26T11:45:16;3.80;95.50
6666;DHT22;3369;49.906;8.598;2023-02-26T11:47:43;3.80;94.60
6666;DHT22;3369;49.906;8.598;2023-02-26T11:50:20;3.80;94.60
6666;DHT22;3369;49.906;8.598;2023-02-26T11:52:54;3.70;93.90
6666;DHT22;3369;49.906;8.598;2023-02-26T11:55:31;3.70;94.50
6666;DHT22;3369;49.906;8.598;2023-02-26T11:57:57;3.60;94.00
6666;DHT22;3369;49.906;8.598;2023-02-26T12:00:28;3.60;94.50
6666;DHT22;3369;49.906;8.598;2023-02-26T12:03:02;3.50;94.80
6666;DHT22;3369;49.906;8.598;2023-02-26T12:05:30;3.60;94.50
6666;DHT22;3369;49.906;8.598;2023-02-26T12:07:56;3.60;94.60
6666;DHT22;3369;49.906;8.598;2023-02-26T12:10:37;3.60;94.10
6666;DHT22;3369;49.906;8.598;2023-02-26T12:13:41;3.60;94.60
6666;DHT22;3369;49.906;8.598;2023-02-26T12:16:42;3.60;94.90
6666;DHT22;3369;49.906;8.598;2023-02-26T12:22:39;3.90;93.10
6666;DHT22;3369;49.906;8.598;2023-02-26T12:30:57;4.20;94.10
6666;DHT22;3369;49.906;8.598;2023-02-26T12:34:36;4.40;94.60
6666;DHT22;3369;49.906;8.598;2023-02-26T12:36:59;4.60;93.30
6666;DHT22;3369;49.906;8.598;2023-02-26T12:47:32;5.10;93.50
6666;DHT22;3369;49.906;8.598;2023-02-26T12:53:00;5.10;91.40
6666;DHT22;3369;49.906;8.598;2023-02-26T12:55:47;4.90;91.00
6666;DHT22;3369;49.906;8.598;2023-02-26T12:58:29;4.70;90.50
6666;DHT22;3369;49.906;8.598;2023-02-26T13:01:02;4.50;91.90
6666;DHT22;3369;49.906;8.598;2023-02-26T13:03:41;4.50;92.30
6666;DHT22;3369;49.906;8.598;2023-02-26T13:29:18;3.80;90.70
6666;DHT22;3369;49.906;8.598;2023-02-26T13:31:59;3.70;91.30
6666;DHT22;3369;49.906;8.598;2023-02-26T13:37:02;3.70;92.00
6666;DHT22;3369;49.906;8.598;2023-02-26T13:42:59;3.70;90.70
6666;DHT22;3369;49.906;8.598;2023-02-26T13:51:08;3.50;90.70
6666;DHT22;3369;49.906;8.598;2023-02-26T13:59:03;3.60;90.70
6666;DHT22;3369;49.906;8.598;2023-02-26T14:01:34;3.50;90.50
6666;DHT22;3369;49.906;8.598;2023-02-26T14:06:52;3.50;88.50
6666;DHT22;3369;49.906;8.598;2023-02-26T14:12:01;3.50;90.00
6666;DHT22;3369;49.906;8.598;2023-02-26T14:14:38;3.50;90.00
6666;DHT22;3369;49.906;8.598;2023-02-26T14:22:31;3.30;89.30
6666;DHT22;3369;49.906;8.598;2023-02-26T14:33:31;3.30;89.90
6666;DHT22;3369;49.906;8.598;2023-02-26T14:36:03;3.30;89.90
6666;DHT22;3369;49.906;8.598;2023-02-26T14:38:34;3.20;90.30
6666;DHT22;3369;49.906;8.598;2023-02-26T14:41:11;3.20;90.30
6666;DHT22;3369;49.906;8.598;2023-02-26T14:43:49;3.30;88.70
6666;DHT22;3369;49.906;8.598;2023-02-26T14:46:18;3.40;87.80
6666;DHT22;3369;49.906;8.598;2023-02-26T14:48:44;3.40;88.20
6666;DHT22;3369;49.906;8.598;2023-02-26T14:57:34;3.40;89.00
6666;DHT22;3369;49.906;8.598;2023-02-26T15:00:41;3.40;89.20
6666;DHT22;3369;49.906;8.598;2023-02-26T15:03:18;3.40;90.00
6666;DHT22;3369;49.906;8.598;2023-02-26T15:08:40;3.50;88.80
6666;DHT22;3369;49.906;8.598;2023-02-26T15:17:57;3.60;85.20
6666;DHT22;3369;49.906;8.598;2023-02-26T15:26:05;3.60;85.50
6666;DHT22;3369;49.906;8.598;2023-02-26T15:28:32;3.60;85.90
6666;DHT22;3369;49.906;8.598;2023-02-26T15:31:02;3.70;85.80
6666;DHT22;3369;49.906;8.598;2023-02-26T15:33:29;3.80;86.00
6666;DHT22;3369;49.906;8.598;2023-02-26T15:35:56;3.80;86.40
6666;DHT22;3369;49.906;8.598;2023-02-26T15:38:23;3.80;86.30
6666;DHT22;3369;49.906;8.598;2023-02-26T15:40:53;3.70;86.20
6666;DHT22;3369;49.906;8.598;2023-02-26T15:43:24;3.60;86.20
6666;DHT22;3369;49.906;8.598;2023-02-26T15:45:54;3.50;86.60
6666;DHT22;3369;49.906;8.598;2023-02-26T15:48:41;3.40;87.80
6666;DHT22;3369;49.906;8.598;2023-02-26T15:51:09;3.30;87.30
6666;DHT22;3369;49.906;8.598;2023-02-26T15:53:45;3.30;85.40
6666;DHT22;3369;49.906;8.598;2023-02-26T15:56:25;3.30;86.90
6666;DHT22;3369;49.906;8.598;2023-02-26T15:58:59;3.30;85.50
6666;DHT22;3369;49.906;8.598;2023-02-26T16:01:27;3.20;85.20
6666;DHT22;3369;49.906;8.598;2023-02-26T16:03:57;3.20;84.40
6666;DHT22;3369;49.906;8.598;2023-02-26T16:06:31;3.10;85.10
6666;DHT22;3369;49.906;8.598;2023-02-26T16:14:59;3.10;86.30
6666;DHT22;3369;49.906;8.598;2023-02-26T16:17:58;3.00;87.40
6666;DHT22;3369;49.906;8.598;2023-02-26T16:26:06;2.90;90.10
6666;DHT22;3369;49.906;8.598;2023-02-26T16:28:38;2.90;88.90
6666;DHT22;3369;49.906;8.598;2023-02-26T16:31:22;2.90;88.10
6666;DHT22;3369;49.906;8.598;2023-02-26T16:36:45;2.70;88.90
6666;DHT22;3369;49.906;8.598;2023-02-26T16:43:03;2.50;88.80
6666;DHT22;3369;49.906;8.598;2023-02-26T16:48:25;2.40;88.20
6666;DHT22;3369;49.906;8.598;2023-02-26T16:53:36;2.20;89.20
6666;DHT22;3369;49.906;8.598;2023-02-26T16:56:06;2.20;89.90
6666;DHT22;3369;49.906;8.598;2023-02-26T16:58:35;2.10;90.00
6666;DHT22;3369;49.906;8.598;2023-02-26T17:01:08;2.10;90.20
6666;DHT22;3369;49.906;8.598;2023-02-26T17:03:37;2.00;90.30
6666;DHT22;3369;49.906;8.598;2023-02-26T17:19:14;2.00;90.60
6666;DHT22;3369;49.906;8.598;2023-02-26T17:21:49;1.90;89.50
6666;DHT22;3369;49.906;8.598;2023-02-26T17:24:24;1.90;89.40
6666;DHT22;3369;49.906;8.598;2023-02-26T17:26:51;1.80;89.90
6666;DHT22;3369;49.906;8.598;2023-02-26T17:32:51;1.70;89.50
6666;DHT22;3369;49.906;8.598;2023-02-26T17:39:24;1.50;90.60
6666;DHT22;3369;49.906;8.598;2023-02-26T17:41:49;1.50;90.50
6666;DHT22;3369;49.906;8.598;2023-02-26T17:44:15;1.50;90.50
6666;DHT22;3369;49.906;8.598;2023-02-26T17:46:41;1.60;90.50
6666;DHT22;3369;49.906;8.598;2023-02-26T17:49:09;1.60;90.60
6666;DHT22;3369;49.906;8.598;2023-02-26T17:51:35;1.60;90.90
6666;DHT22;3369;49.906;8.598;2023-02-26T17:54:01;1.50;91.00
6666;DHT22;3369;49.906;8.598;2023-02-26T17:56:29;1.50;91.00
6666;DHT22;3369;49.906;8.598;2023-02-26T17:58:59;1.50;91.10
6666;DHT22;3369;49.906;8.598;2023-02-26T18:01:26;1.50;91.30
6666;DHT22;3369;49.906;8.598;2023-02-26T18:03:55;1.50;91.30
6666;DHT22;3369;49.906;8.598;2023-02-26T18:06:23;1.50;91.30
6666;DHT22;3369;49.906;8.598;2023-02-26T18:18:38;1.40;91.20
6666;DHT22;3369;49.906;8.598;2023-02-26T18:21:07;1.50;91.00
6666;DHT22;3369;49.906;8.598;2023-02-26T18:23:42;1.50;91.10
6666;DHT22;3369;49.906;8.598;2023-02-26T18:26:09;1.50;91.00
6666;DHT22;3369;49.906;8.598;2023-02-26T18:28:36;1.50;90.90
6666;DHT22;3369;49.906;8.598;2023-02-26T18:31:02;1.50;91.00
6666;DHT22;3369;49.906;8.598;2023-02-26T18:33:33;1.50;91.10
6666;DHT22;3369;49.906;8.598;2023-02-26T18:36:02;1.50;91.40
6666;DHT22;3369;49.906;8.598;2023-02-26T18:38:34;1.50;91.50
6666;DHT22;3369;49.906;8.598;2023-02-26T18:41:00;1.50;91.40
6666;DHT22;3369;49.906;8.598;2023-02-26T18:43:26;1.50;91.40
6666;DHT22;3369;49.906;8.598;2023-02-26T18:45:54;1.60;91.30
6666;DHT22;3369;49.906;8.598;2023-02-26T18:48:25;1.60;91.10
6666;DHT22;3369;49.906;8.598;2023-02-26T18:50:51;1.60;91.20
6666;DHT22;3369;49.906;8.598;2023-02-26T18:53:29;1.50;91.30
6666;DHT22;3369;49.906;8.598;2023-02-26T18:56:14;1.50;91.40
6666;DHT22;3369;49.906;8.598;2023-02-26T19:01:18;1.50;91.30
6666;DHT22;3369;49.906;8.598;2023-02-26T19:03:47;1.40;91.40
6666;DHT22;3369;49.906;8.598;2023-02-26T19:06:13;1.50;91.40
6666;DHT22;3369;49.906;8.598;2023-02-26T19:28:38;1.20;91.30
6666;DHT22;3369;49.906;8.598;2023-02-26T19:33:51;1.10;92.00
6666;DHT22;3369;49.906;8.598;2023-02-26T19:36:22;1.00;92.20
6666;DHT22;3369;49.906;8.598;2023-02-26T19:45:12;0.90;92.40
6666;DHT22;3369;49.906;8.598;2023-02-26T19:47:39;0.90;92.30
6666;DHT22;3369;49.906;8.598;2023-02-26T19:50:05;0.90;92.40
6666;DHT22;3369;49.906;8.598;2023-02-26T19:52:44;0.90;92.40
6666;DHT22;3369;49.906;8.598;2023-02-26T19:55:11;0.80;92.50
6666;DHT22;3369;49.906;8.598;2023-02-26T19:57:39;0.80;92.60
6666;DHT22;3369;49.906;8.598;2023-02-26T20:00:08;0.70;92.70
6666;DHT22;3369;49.906;8.598;2023-02-26T20:02:39;0.70;92.60
6666;DHT22;3369;49.906;8.598;2023-02-26T20:05:06;0.70;92.90
6666;DHT22;3369;49.906;8.598;2023-02-26T20:07:41;0.60;93.10
6666;DHT22;3369;49.906;8.598;2023-02-26T20:10:08;0.50;93.30
6666;DHT22;3369;49.906;8.598;2023-02-26T20:12:34;0.40;93.60
6666;DHT22;3369;49.906;8.598;2023-02-26T20:15:04;0.20;93.70
6666;DHT22;3369;49.906;8.598;2023-02-26T20:17:33;0.20;93.80
6666;DHT22;3369;49.906;8.598;2023-02-26T20:19:59;0.20;93.90
6666;DHT22;3369;49.906;8.598;2023-02-26T20:22:28;0.10;94.00
6666;DHT22;3369;49.906;8.598;2023-02-26T20:28:22;0.00;94.40
6666;DHT22;3369;49.906;8.598;2023-02-26T20:30:48;0.00;94.50
6666;DHT22;3369;49.906;8.598;2023-02-26T20:33:14;-0.10;94.60
6666;DHT22;3369;49.906;8.598;2023-02-26T20:35:41;-0.10;94.70
6666;DHT22;3369;49.906;8.598;2023-02-26T20:38:20;-0.10;94.70
6666;DHT22;3369;49.906;8.598;2023-02-26T20:40:50;-0.20;94.70
6666;DHT22;3369;49.906;8.598;2023-02-26T20:43:16;-0.20;94.70
6666;DHT22;3369;49.906;8.598;2023-02-26T20:46:01;-0.20;94.80
6666;DHT22;3369;49.906;8.598;2023-02-26T20:48:29;-0.20;94.80
6666;DHT22;3369;49.906;8.598;2023-02-26T20:51:05;-0.20;94.80
6666;DHT22;3369;49.906;8.598;2023-02-26T20:53:35;-0.20;94.80
6666;DHT22;3369;49.906;8.598;2023-02-26T20:56:08;-0.30;94.90
6666;DHT22;3369;49.906;8.598;2023-02-26T20:58:34;-0.20;95.00
6666;DHT22;3369;49.906;8.598;2023-02-26T21:03:56;-0.20;95.10
6666;DHT22;3369;49.906;8.598;2023-02-26T21:06:22;-0.30;95.10
6666;DHT22;3369;49.906;8.598;2023-02-26T21:09:01;-0.40;95.20
6666;DHT22;3369;49.906;8.598;2023-02-26T21:11:40;-0.40;95.30
6666;DHT22;3369;49.906;8.598;2023-02-26T21:14:07;-0.50;95.50
6666;DHT22;3369;49.906;8.598;2023-02-26T21:16:35;-0.60;95.70
6666;DHT22;3369;49.906;8.598;2023-02-26T21:19:01;-0.70;95.80
6666;DHT22;3369;49.906;8.598;2023-02-26T21:21:36;-0.70;95.80
6666;DHT22;3369;49.906;8.598;2023-02-26T21:24:44;-0.70;96.00
6666;DHT22;3369;49.906;8.598;2023-02-26T21:29:56;-0.80;96.20
6666;DHT22;3369;49.906;8.598;2023-02-26T21:32:24;-0.80;96.20
6666;DHT22;3369;49.906;8.598;2023-02-26T21:38:17;-0.80;96.20
6666;DHT22;3369;49.906;8.598;2023-02-26T21:40:44;-0.80;96.20
6666;DHT22;3369;49.906;8.598;2023-02-26T21:43:13;-0.80;96.20
6666;DHT22;3369;49.906;8.598;2023-02-26T21:45:39;-0.80;96.20
6666;DHT22;3369;49.906;8.598;2023-02-26T21:48:08;-0.80;96.30
6666;DHT22;3369;49.906;8.598;2023-02-26T21:50:40;-0.80;96.30
6666;DHT22;3369;49.906;8.598;2023-02-26T21:53:06;-0.90;96.20
6666;DHT22;3369;49.906;8.598;2023-02-26T21:55:32;-0.80;96.30
6666;DHT22;3369;49.906;8.598;2023-02-26T21:58:00;-0.90;96.30
6666;DHT22;3369;49.906;8.598;2023-02-26T22:00:30;-0.90;96.40
6666;DHT22;3369;49.906;8.598;2023-02-26T22:02:59;-1.00;96.40
6666;DHT22;3369;49.906;8.598;2023-02-26T22:09:06;-1.10;96.50
6666;DHT22;3369;49.906;8.598;2023-02-26T22:11:32;-1.10;96.70
6666;DHT22;3369;49.906;8.598;2023-02-26T22:14:00;-1.20;96.90
6666;DHT22;3369;49.906;8.598;2023-02-26T22:16:26;-1.30;97.00
6666;DHT22;3369;49.906;8.598;2023-02-26T22:19:10;-1.40;97.10
6666;DHT22;3369;49.906;8.598;2023-02-26T22:21:56;-1.40;97.20
6666;DHT22;3369;49.906;8.598;2023-02-26T22:24:22;-1.40;97.30
6666;DHT22;3369;49.906;8.598;2023-02-26T22:27:12;-1.40;97.30
6666;DHT22;3369;49.906;8.598;2023-02-26T22:29:43;-1.40;97.30
6666;DHT22;3369;49.906;8.598;2023-02-26T22:32:09;-1.40;97.60
6666;DHT22;3369;49.906;8.598;2023-02-26T22:40:45;-1.40;97.30
6666;DHT22;3369;49.906;8.598;2023-02-26T22:43:12;-1.40;97.20
6666;DHT22;3369;49.906;8.598;2023-02-26T22:45:40;-1.40;97.20
6666;DHT22;3369;49.906;8.598;2023-02-26T22:48:10;-1.40;97.30
6666;DHT22;3369;49.906;8.598;2023-02-26T22:50:41;-1.40;97.30